Main page
METAR-TAF:

METAR-TAF

Airports :

Bobo-Dioulasso, Burkina Faso

Bobo Dioulasso Airport

latitude: 11-10N, longitude: 004-19W, elevation: 460 m

Current weather observation

The report was made 1 hour and 10 minutes ago, at 14:00 UTC
Wind 8 kt from the Northwest
Temperature 33°C
Humidity 53%
Pressure 1012 hPa
Visibility 10 km or more
Few clouds at a height of 1600 ft

METAR: DFOO 191400Z 32008KT 9999 FEW016 33/22 Q1012

Time: 15:10 (15:10 UTC)

Forecast

The report was made 4 hours and 10 minutes ago, at 11:00 UTC
Forecast valid from 19 at 12 UTC to 20 at 12 UTC
Wind 8 kt from the West/Southwest
Visibility 10 km or more
Few clouds at a height of 1600 ft
Probability 30% :
Temporary
from 19 at 16 UTC to 19 at 24 UTC
Visibility: 4000 m
Scattered clouds at a height of 1600 ft
Few clouds at a height of 3000 ft, Cumulonimbus.
thunderstorm, rain

TAF: DFOO 191100Z 1912/2012 24008KT 9999 FEW016 PROB30 TEMPO 1916/1924 4000 TSRA SCT016 FEW030CB

Weather observations and forecasts of more than 4000 airports (METAR and TAF reports).

The available stations are represented by yellow and red dots on the map.

Hover mouse over dot to see the name of the station.

Then click to see weather observations and forecasts.

To change the map : click on the green buttons with a black cross to zoom in, on the green button with a dash to zoom out, or on the green arrows for adjacent maps.


METAR-TAF: